createdAt,value
2023-01-07T00:01:44.603Z,4.72
2023-01-07T00:04:15.604Z,4.63
2023-01-07T00:06:45.433Z,4.59
2023-01-07T00:09:16.863Z,4.59
2023-01-07T00:11:46.037Z,4.60
2023-01-07T00:14:15.436Z,4.63
2023-01-07T00:16:44.176Z,4.61
2023-01-07T00:19:15.954Z,4.59
2023-01-07T00:21:44.373Z,4.66
2023-01-07T00:24:13.270Z,4.72
2023-01-07T00:26:41.992Z,4.79
2023-01-07T00:29:10.635Z,4.86
2023-01-07T00:31:40.655Z,4.93
2023-01-07T00:34:09.786Z,5.01
2023-01-07T00:36:46.952Z,5.11
2023-01-07T00:39:20.964Z,5.18
2023-01-07T00:42:08.640Z,5.22
2023-01-07T00:44:38.134Z,5.31
2023-01-07T00:47:06.712Z,5.38
2023-01-07T00:49:35.197Z,5.46
2023-01-07T00:52:03.796Z,5.53
2023-01-07T00:54:32.273Z,5.61
2023-01-07T00:57:00.714Z,5.68
2023-01-07T00:59:53.838Z,5.70
2023-01-07T01:02:22.421Z,5.66
2023-01-07T01:04:50.894Z,5.70
2023-01-07T01:07:19.232Z,5.72
2023-01-07T01:09:47.674Z,5.71
2023-01-07T01:12:16.121Z,5.71
2023-01-07T01:14:44.599Z,5.77
2023-01-07T01:17:13.033Z,5.84
2023-01-07T01:19:41.394Z,5.89
2023-01-07T01:22:09.933Z,5.87
2023-01-07T01:24:38.294Z,5.86
2023-01-07T01:27:06.693Z,5.86
2023-01-07T01:29:35.074Z,5.90
2023-01-07T01:32:03.614Z,5.95
2023-01-07T01:34:32.115Z,6.00
2023-01-07T01:37:00.432Z,6.07
2023-01-07T01:39:28.912Z,6.14
2023-01-07T01:41:57.278Z,6.17
2023-01-07T01:44:44.274Z,6.19
2023-01-07T01:47:27.715Z,6.19
2023-01-07T01:50:05.792Z,6.13
2023-01-07T01:52:40.383Z,6.13
2023-01-07T01:55:10.532Z,6.06
2023-01-07T01:57:40.442Z,5.97
2023-01-07T02:00:10.380Z,5.96
2023-01-07T02:02:47.460Z,6.00
2023-01-07T02:05:16.807Z,5.98
2023-01-07T02:07:45.219Z,5.98
2023-01-07T02:10:22.361Z,5.96
2023-01-07T02:12:51.132Z,5.93
2023-01-07T02:15:31.720Z,5.91
2023-01-07T02:18:43.345Z,5.93
2023-01-07T02:21:33.562Z,5.96
2023-01-07T02:24:20.270Z,5.94
2023-01-07T02:27:21.990Z,5.93
2023-01-07T02:29:56.061Z,5.90
2023-01-07T02:32:46.945Z,5.88
2023-01-07T02:35:24.320Z,5.88
2023-01-07T02:38:19.048Z,5.89
2023-01-07T02:40:56.582Z,5.90
2023-01-07T02:43:43.670Z,5.89
2023-01-07T02:46:31.663Z,5.90
2023-01-07T02:49:01.258Z,5.93
2023-01-07T02:51:38.039Z,5.98
2023-01-07T02:54:11.839Z,6.01
2023-01-07T02:56:55.279Z,6.03
2023-01-07T03:00:00.419Z,6.05
2023-01-07T03:02:34.529Z,6.03
2023-01-07T03:05:08.576Z,6.04
2023-01-07T03:08:02.653Z,6.01
2023-01-07T03:10:52.829Z,6.00
2023-01-07T03:13:27.290Z,5.93
2023-01-07T03:16:06.413Z,5.85
2023-01-07T03:18:43.717Z,5.79
2023-01-07T03:21:16.416Z,5.77
2023-01-07T03:23:50.912Z,5.79
2023-01-07T03:26:27.202Z,5.82
2023-01-07T03:28:59.571Z,5.85
2023-01-07T03:31:29.601Z,5.89
2023-01-07T03:34:08.812Z,5.92
2023-01-07T03:36:43.677Z,5.88
2023-01-07T03:39:13.952Z,5.86
2023-01-07T03:42:00.702Z,5.85
2023-01-07T03:44:29.135Z,5.82
2023-01-07T03:46:57.496Z,5.84
2023-01-07T03:49:26.050Z,5.87
2023-01-07T03:51:55.024Z,5.90
2023-01-07T03:54:26.366Z,5.93
2023-01-07T03:56:54.884Z,5.95
2023-01-07T04:00:00.883Z,5.98
2023-01-07T04:02:29.341Z,5.98
2023-01-07T04:04:57.824Z,5.95
2023-01-07T04:07:26.274Z,5.92
2023-01-07T04:09:54.498Z,5.90
2023-01-07T04:12:22.935Z,5.91
2023-01-07T04:14:51.294Z,5.96
2023-01-07T04:17:19.707Z,5.97
2023-01-07T04:19:48.147Z,5.98
2023-01-07T04:22:16.670Z,5.98
2023-01-07T04:24:45.107Z,6.03
2023-01-07T04:27:13.441Z,6.07
2023-01-07T04:29:41.967Z,6.11
2023-01-07T04:32:10.406Z,6.12
2023-01-07T04:34:38.836Z,6.15
2023-01-07T04:37:07.268Z,6.15
2023-01-07T04:39:35.603Z,6.12
2023-01-07T04:42:04.032Z,6.06
2023-01-07T04:44:32.449Z,6.03
2023-01-07T04:47:00.809Z,6.00
2023-01-07T04:49:29.280Z,5.96
2023-01-07T04:51:57.555Z,5.92
2023-01-07T04:54:25.885Z,5.86
2023-01-07T04:56:54.349Z,5.81
2023-01-07T04:59:42.972Z,5.80
2023-01-07T05:02:11.483Z,5.82
2023-01-07T05:04:39.998Z,5.80
2023-01-07T05:07:08.406Z,5.80
2023-01-07T05:09:36.990Z,5.77
2023-01-07T05:12:05.679Z,5.70
2023-01-07T05:14:34.130Z,5.70
2023-01-07T05:17:02.697Z,5.73
2023-01-07T05:19:31.155Z,5.74
2023-01-07T05:22:00.880Z,5.72
2023-01-07T05:24:29.454Z,5.71
2023-01-07T05:26:57.975Z,5.72
2023-01-07T05:29:26.392Z,5.74
2023-01-07T05:31:54.827Z,5.74
2023-01-07T05:34:23.311Z,5.78
2023-01-07T05:36:51.711Z,5.82
2023-01-07T05:39:20.171Z,5.88
2023-01-07T05:41:48.631Z,5.92
2023-01-07T05:44:17.031Z,5.93
2023-01-07T05:46:45.473Z,5.96
2023-01-07T05:49:14.035Z,5.99
2023-01-07T05:51:42.531Z,6.02
2023-01-07T05:54:10.968Z,6.01
2023-01-07T05:56:39.562Z,6.02
2023-01-07T05:59:07.915Z,6.02
2023-01-07T06:01:36.477Z,6.04
2023-01-07T06:04:04.855Z,6.05
2023-01-07T06:06:33.149Z,5.97
2023-01-07T06:09:01.409Z,5.78
2023-01-07T06:11:29.767Z,5.64
2023-01-07T06:13:58.107Z,5.64
2023-01-07T06:16:26.484Z,5.67
2023-01-07T06:18:54.919Z,5.64
2023-01-07T06:21:23.360Z,5.60
2023-01-07T06:23:51.751Z,5.64
2023-01-07T06:26:20.397Z,5.68
2023-01-07T06:28:48.818Z,5.70
2023-01-07T06:31:17.198Z,5.74
2023-01-07T06:33:45.664Z,5.77
2023-01-07T06:36:14.214Z,5.81
2023-01-07T06:38:42.691Z,5.82
2023-01-07T06:41:11.048Z,5.75
2023-01-07T06:43:39.434Z,5.63
2023-01-07T06:46:08.090Z,5.52
2023-01-07T06:48:36.658Z,5.56
2023-01-07T06:51:05.102Z,5.63
2023-01-07T06:53:33.593Z,5.65
2023-01-07T06:56:01.976Z,5.65
2023-01-07T06:58:30.551Z,5.66
2023-01-07T07:01:04.693Z,5.65
2023-01-07T07:03:34.384Z,5.67
2023-01-07T07:06:02.827Z,5.71
2023-01-07T07:08:31.208Z,5.78
2023-01-07T07:10:59.579Z,5.77
2023-01-07T07:13:27.876Z,5.73
2023-01-07T07:15:56.240Z,5.70
2023-01-07T07:18:24.685Z,5.68
2023-01-07T07:20:52.973Z,5.65
2023-01-07T07:23:21.337Z,5.67
2023-01-07T07:25:49.588Z,5.69
2023-01-07T07:28:17.944Z,5.71
2023-01-07T07:30:47.564Z,5.71
2023-01-07T07:33:19.683Z,5.70
2023-01-07T07:35:48.301Z,5.71
2023-01-07T07:38:18.162Z,5.74
2023-01-07T07:40:47.258Z,5.76
2023-01-07T07:43:16.423Z,5.77
2023-01-07T07:45:45.364Z,5.74
2023-01-07T07:48:15.965Z,5.64
2023-01-07T07:50:44.365Z,5.57
2023-01-07T07:53:12.846Z,5.46
2023-01-07T07:55:41.794Z,5.38
2023-01-07T07:58:10.260Z,5.26
2023-01-07T08:00:57.612Z,5.21
2023-01-07T08:03:26.152Z,5.19
2023-01-07T08:05:54.536Z,5.21
2023-01-07T08:08:23.056Z,5.22
2023-01-07T08:10:51.392Z,5.22
2023-01-07T08:13:19.815Z,5.28
2023-01-07T08:15:48.244Z,5.31
2023-01-07T08:18:16.891Z,5.35
2023-01-07T08:20:45.286Z,5.43
2023-01-07T08:23:13.704Z,5.52
2023-01-07T08:25:42.687Z,5.60
2023-01-07T08:28:11.940Z,5.66
2023-01-07T08:30:40.625Z,5.70
2023-01-07T08:33:09.176Z,5.76
2023-01-07T08:35:37.627Z,5.85
2023-01-07T08:38:08.431Z,5.93
2023-01-07T08:40:37.755Z,6.03
2023-01-07T08:43:08.502Z,6.09
2023-01-07T08:45:37.391Z,6.02
2023-01-07T08:48:06.324Z,5.99
2023-01-07T08:50:34.869Z,5.98
2023-01-07T08:53:03.498Z,5.96
2023-01-07T08:55:31.923Z,5.92
2023-01-07T08:58:00.327Z,5.88
2023-01-07T09:00:46.875Z,5.89
2023-01-07T09:03:15.484Z,5.89
2023-01-07T09:05:44.364Z,5.79
2023-01-07T09:08:12.865Z,5.71
2023-01-07T09:10:41.271Z,5.67
2023-01-07T09:13:09.730Z,5.68
2023-01-07T09:15:38.072Z,5.79
2023-01-07T09:18:07.215Z,5.94
2023-01-07T09:20:35.644Z,6.12
2023-01-07T09:23:04.055Z,6.24
2023-01-07T09:25:32.620Z,6.27
2023-01-07T09:28:01.200Z,6.25
2023-01-07T09:30:29.697Z,6.26
2023-01-07T09:32:58.097Z,6.25
2023-01-07T09:35:26.508Z,6.22
2023-01-07T09:37:54.927Z,6.31
2023-01-07T09:40:38.457Z,6.36
2023-01-07T09:43:08.204Z,6.39
2023-01-07T09:45:58.847Z,6.41
2023-01-07T09:48:35.329Z,6.50
2023-01-07T09:51:19.802Z,6.57
2023-01-07T09:53:52.437Z,6.61
2023-01-07T09:56:25.711Z,6.59
2023-01-07T09:58:57.772Z,6.52
2023-01-07T10:01:30.617Z,6.46
2023-01-07T10:04:17.317Z,6.42
2023-01-07T10:06:54.430Z,6.41
2023-01-07T10:09:40.667Z,6.34
2023-01-07T10:12:23.607Z,6.33
2023-01-07T10:15:03.662Z,6.31
2023-01-07T10:18:06.485Z,6.35
2023-01-07T10:20:35.265Z,6.32
2023-01-07T10:23:26.259Z,6.32
2023-01-07T10:25:56.814Z,6.42
2023-01-07T10:29:00.428Z,6.52
2023-01-07T10:31:30.062Z,6.49
2023-01-07T10:33:59.816Z,6.46
2023-01-07T10:36:28.551Z,6.46
2023-01-07T10:39:14.714Z,6.51
2023-01-07T10:41:48.911Z,6.56
2023-01-07T10:44:30.181Z,6.56
2023-01-07T10:47:09.255Z,6.61
2023-01-07T10:49:58.644Z,6.67
2023-01-07T10:52:38.807Z,6.77
2023-01-07T10:55:22.400Z,6.86
2023-01-07T10:57:50.945Z,6.90
2023-01-07T11:00:20.868Z,6.93
2023-01-07T11:02:56.962Z,7.01
2023-01-07T11:05:37.322Z,7.04
2023-01-07T11:08:13.233Z,7.04
2023-01-07T11:10:42.062Z,7.02
2023-01-07T11:13:16.972Z,7.02
2023-01-07T11:15:54.955Z,7.05
2023-01-07T11:18:35.700Z,7.08
2023-01-07T11:21:04.112Z,7.04
2023-01-07T11:23:42.698Z,7.04
2023-01-07T11:26:25.535Z,7.07
2023-01-07T11:29:03.034Z,7.06
2023-01-07T11:31:53.906Z,7.06
2023-01-07T11:34:30.685Z,7.08
2023-01-07T11:36:59.333Z,7.10
2023-01-07T11:39:36.154Z,7.10
2023-01-07T11:42:35.672Z,7.04
2023-01-07T11:45:25.127Z,7.01
2023-01-07T11:47:59.347Z,7.02
2023-01-07T11:51:03.021Z,6.93
2023-01-07T11:53:51.002Z,7.03
2023-01-07T11:56:22.197Z,7.07
2023-01-07T11:59:46.983Z,7.00
2023-01-07T12:02:28.010Z,6.83
2023-01-07T12:05:19.294Z,6.79
2023-01-07T12:07:51.947Z,6.81
2023-01-07T12:10:33.543Z,6.74
2023-01-07T12:13:32.543Z,6.64
2023-01-07T12:16:02.277Z,6.61
2023-01-07T12:18:50.170Z,6.59
2023-01-07T12:21:50.108Z,6.58
2023-01-07T12:24:56.509Z,6.63
2023-01-07T12:30:37.377Z,6.75
2023-01-07T12:33:17.777Z,6.80
2023-01-07T12:35:46.256Z,6.79
2023-01-07T12:38:46.776Z,6.85
2023-01-07T12:41:21.047Z,6.80
2023-01-07T12:44:02.927Z,6.74
2023-01-07T12:47:32.107Z,6.72
2023-01-07T12:50:01.542Z,6.71
2023-01-07T12:52:41.984Z,6.68
2023-01-07T12:55:28.911Z,6.66
2023-01-07T12:58:11.022Z,6.68
2023-01-07T13:01:07.045Z,6.67
2023-01-07T13:03:58.524Z,6.70
2023-01-07T13:06:50.340Z,6.72
2023-01-07T13:09:29.063Z,6.74
2023-01-07T13:12:45.929Z,6.71
2023-01-07T13:15:34.001Z,6.68
2023-01-07T13:18:16.366Z,6.66
2023-01-07T13:21:07.897Z,6.65
2023-01-07T13:23:56.801Z,6.64
2023-01-07T13:26:31.320Z,6.67
2023-01-07T13:29:21.125Z,6.68
2023-01-07T13:32:31.205Z,6.67
2023-01-07T13:35:14.564Z,6.64
2023-01-07T13:38:03.822Z,6.63
2023-01-07T13:40:50.449Z,6.68
2023-01-07T13:43:34.162Z,6.70
2023-01-07T13:46:29.811Z,6.73
2023-01-07T13:48:58.355Z,6.71
2023-01-07T13:51:33.354Z,6.70
2023-01-07T13:54:02.293Z,6.71
2023-01-07T13:56:36.332Z,6.70
2023-01-07T13:59:04.943Z,6.68
2023-01-07T14:01:34.409Z,6.64
2023-01-07T14:04:07.252Z,6.63
2023-01-07T14:06:45.115Z,6.62
2023-01-07T14:09:21.792Z,6.62
2023-01-07T14:12:17.995Z,6.60
2023-01-07T14:15:07.292Z,6.59
2023-01-07T14:17:53.685Z,6.62
2023-01-07T14:20:29.223Z,6.62
2023-01-07T14:23:20.160Z,6.62
2023-01-07T14:26:10.691Z,6.61
2023-01-07T14:29:10.727Z,6.60
2023-01-07T14:31:39.337Z,6.59
2023-01-07T14:34:19.359Z,6.59
2023-01-07T14:37:05.110Z,6.58
2023-01-07T14:39:34.795Z,6.54
2023-01-07T14:42:20.892Z,6.48
2023-01-07T14:44:51.330Z,6.41
2023-01-07T14:47:58.065Z,6.38
2023-01-07T14:50:42.959Z,6.34
2023-01-07T14:53:54.605Z,6.32
2023-01-07T14:56:36.334Z,6.31
2023-01-07T14:59:31.736Z,6.31
2023-01-07T15:02:17.112Z,6.30
2023-01-07T15:04:54.105Z,6.30
2023-01-07T15:07:26.951Z,6.30
2023-01-07T15:10:17.179Z,6.30
2023-01-07T15:12:55.934Z,6.30
2023-01-07T15:15:54.932Z,6.30
2023-01-07T15:18:23.737Z,6.30
2023-01-07T15:21:10.891Z,6.29
2023-01-07T15:24:03.660Z,6.29
2023-01-07T15:26:43.678Z,6.28
2023-01-07T15:29:57.568Z,6.28
2023-01-07T15:32:52.126Z,6.27
2023-01-07T15:35:22.728Z,6.26
2023-01-07T15:37:52.237Z,6.24
2023-01-07T15:40:25.004Z,6.23
2023-01-07T15:42:57.706Z,6.23
2023-01-07T15:45:28.834Z,6.23
2023-01-07T15:48:13.359Z,6.23
2023-01-07T15:50:45.860Z,6.23
2023-01-07T15:53:14.245Z,6.22
2023-01-07T15:55:52.066Z,6.22
2023-01-07T15:58:48.984Z,6.20
2023-01-07T16:01:23.280Z,6.18
2023-01-07T16:03:55.265Z,6.16
2023-01-07T16:06:32.647Z,6.14
2023-01-07T16:09:16.898Z,6.14
2023-01-07T16:11:46.585Z,6.13
2023-01-07T16:14:17.907Z,6.11
2023-01-07T16:16:46.305Z,6.10
2023-01-07T16:19:20.549Z,6.09
2023-01-07T16:21:55.323Z,6.08
2023-01-07T16:24:24.329Z,6.07
2023-01-07T16:26:55.510Z,6.07
2023-01-07T16:29:29.936Z,6.06
2023-01-07T16:31:59.254Z,6.06
2023-01-07T16:34:27.564Z,6.06
2023-01-07T16:36:58.564Z,6.05
2023-01-07T16:39:31.619Z,6.06
2023-01-07T16:42:18.892Z,6.05
2023-01-07T16:44:49.744Z,6.04
2023-01-07T16:47:26.887Z,6.02
2023-01-07T16:50:19.564Z,6.01
2023-01-07T16:52:56.483Z,5.98
2023-01-07T16:55:53.323Z,5.97
2023-01-07T16:58:40.945Z,5.95
2023-01-07T17:01:10.685Z,5.95
2023-01-07T17:03:50.402Z,5.95
2023-01-07T17:06:27.024Z,5.95
2023-01-07T17:08:56.812Z,5.96
2023-01-07T17:11:38.434Z,5.96
2023-01-07T17:14:34.209Z,5.98
2023-01-07T17:17:18.514Z,5.99
2023-01-07T17:19:53.725Z,5.99
2023-01-07T17:22:40.011Z,6.01
2023-01-07T17:25:15.687Z,6.01
2023-01-07T17:28:08.630Z,6.02
2023-01-07T17:30:37.786Z,6.03
2023-01-07T17:33:06.428Z,6.04
2023-01-07T17:35:46.824Z,6.05
2023-01-07T17:38:16.886Z,6.05
2023-01-07T17:40:45.773Z,6.06
2023-01-07T17:43:34.326Z,6.03
2023-01-07T17:46:04.111Z,5.99
2023-01-07T17:48:34.048Z,5.95
2023-01-07T17:51:04.767Z,5.89
2023-01-07T17:53:39.589Z,5.85
2023-01-07T17:56:08.299Z,5.82
2023-01-07T17:58:38.898Z,5.81
2023-01-07T18:01:10.399Z,5.82
2023-01-07T18:03:39.136Z,5.83
2023-01-07T18:06:18.140Z,5.84
2023-01-07T18:08:48.082Z,5.86
2023-01-07T18:11:41.428Z,5.86
2023-01-07T18:14:13.944Z,5.84
2023-01-07T18:16:43.025Z,5.82
2023-01-07T18:19:13.616Z,5.79
2023-01-07T18:21:42.422Z,5.76
2023-01-07T18:24:19.972Z,5.73
2023-01-07T18:26:48.435Z,5.70
2023-01-07T18:29:16.744Z,5.67
2023-01-07T18:31:45.497Z,5.64
2023-01-07T18:34:16.409Z,5.59
2023-01-07T18:36:47.257Z,5.54
2023-01-07T18:39:19.356Z,5.49
2023-01-07T18:41:51.615Z,5.45
2023-01-07T18:44:21.883Z,5.40
2023-01-07T18:46:50.179Z,5.37
2023-01-07T18:49:18.573Z,5.33
2023-01-07T18:51:48.311Z,5.30
2023-01-07T18:54:17.024Z,5.27
2023-01-07T18:56:48.093Z,5.24
2023-01-07T18:59:16.586Z,5.22
2023-01-07T19:01:45.263Z,5.21
2023-01-07T19:04:13.778Z,5.19
2023-01-07T19:06:42.264Z,5.19
2023-01-07T19:09:10.588Z,5.20
2023-01-07T19:11:38.863Z,5.19
2023-01-07T19:14:12.348Z,5.19
2023-01-07T19:16:40.938Z,5.19
2023-01-07T19:19:10.226Z,5.17
2023-01-07T19:21:38.855Z,5.18
2023-01-07T19:24:07.434Z,5.17
2023-01-07T19:26:35.837Z,5.17
2023-01-07T19:29:04.299Z,5.17
2023-01-07T19:31:32.843Z,5.17
2023-01-07T19:34:04.200Z,5.17
2023-01-07T19:36:32.646Z,5.15
2023-01-07T19:39:00.988Z,5.13
2023-01-07T19:41:29.624Z,5.11
2023-01-07T19:44:00.011Z,5.10
2023-01-07T19:46:28.716Z,5.09
2023-01-07T19:48:57.163Z,5.09
2023-01-07T19:51:25.486Z,5.10
2023-01-07T19:53:54.055Z,5.11
2023-01-07T19:56:22.355Z,5.13
2023-01-07T19:58:54.194Z,5.14
2023-01-07T20:01:26.710Z,5.15
2023-01-07T20:03:57.372Z,5.17
2023-01-07T20:06:30.257Z,5.19
2023-01-07T20:08:58.943Z,5.21
2023-01-07T20:11:27.244Z,5.25
2023-01-07T20:13:55.606Z,5.28
2023-01-07T20:16:24.947Z,5.29
2023-01-07T20:18:55.337Z,5.28
2023-01-07T20:21:28.523Z,5.27
2023-01-07T20:23:56.850Z,5.26
2023-01-07T20:26:31.104Z,5.25
2023-01-07T20:29:00.543Z,5.24
2023-01-07T20:31:31.810Z,5.21
2023-01-07T20:34:00.530Z,5.19
2023-01-07T20:36:31.813Z,5.15
2023-01-07T20:39:05.920Z,5.11
2023-01-07T20:41:36.504Z,5.06
2023-01-07T20:44:08.961Z,5.01
2023-01-07T20:46:43.374Z,4.95
2023-01-07T20:49:12.805Z,4.89
2023-01-07T20:51:41.148Z,4.83
2023-01-07T20:54:09.547Z,4.78
2023-01-07T20:56:38.132Z,4.73
2023-01-07T20:59:06.543Z,4.69
2023-01-07T21:01:35.185Z,4.65
2023-01-07T21:04:03.853Z,4.61
2023-01-07T21:06:32.289Z,4.57
2023-01-07T21:09:00.856Z,4.54
2023-01-07T21:11:29.384Z,4.51
2023-01-07T21:13:57.825Z,4.49
2023-01-07T21:16:27.719Z,4.47
2023-01-07T21:18:56.674Z,4.43
2023-01-07T21:21:26.762Z,4.39
2023-01-07T21:23:55.477Z,4.36
2023-01-07T21:26:25.132Z,4.32
2023-01-07T21:28:56.304Z,4.28
2023-01-07T21:31:26.900Z,4.23
2023-01-07T21:33:57.104Z,4.20
2023-01-07T21:36:26.964Z,4.20
2023-01-07T21:38:57.256Z,4.18
2023-01-07T21:41:27.408Z,4.15
2023-01-07T21:43:56.375Z,4.11
2023-01-07T21:46:24.790Z,4.07
2023-01-07T21:48:53.247Z,4.04
2023-01-07T21:51:25.135Z,4.02
2023-01-07T21:53:58.466Z,4.00
2023-01-07T21:56:32.535Z,3.96
2023-01-07T21:59:00.959Z,3.93
2023-01-07T22:01:29.700Z,3.90
2023-01-07T22:03:59.446Z,3.87
2023-01-07T22:06:36.080Z,3.85
2023-01-07T22:09:09.114Z,3.83
2023-01-07T22:11:39.312Z,3.81
2023-01-07T22:14:12.083Z,3.79
2023-01-07T22:16:40.517Z,3.76
2023-01-07T22:19:11.343Z,3.75
2023-01-07T22:21:40.079Z,3.73
2023-01-07T22:24:08.554Z,3.73
2023-01-07T22:26:37.175Z,3.71
2023-01-07T22:29:08.014Z,3.69
2023-01-07T22:31:37.397Z,3.68
2023-01-07T22:34:07.114Z,3.67
2023-01-07T22:36:35.383Z,3.65
2023-01-07T22:39:10.564Z,3.63
2023-01-07T22:41:39.393Z,3.60
2023-01-07T22:44:13.089Z,3.59
2023-01-07T22:46:45.888Z,3.58
2023-01-07T22:49:15.173Z,3.56
2023-01-07T22:51:48.421Z,3.55
2023-01-07T22:54:17.943Z,3.55
2023-01-07T22:56:47.064Z,3.54
2023-01-07T22:59:15.617Z,3.52
2023-01-07T23:01:44.039Z,3.49
2023-01-07T23:04:12.542Z,3.47
2023-01-07T23:06:40.900Z,3.46
2023-01-07T23:09:09.284Z,3.46
2023-01-07T23:11:49.727Z,3.43
2023-01-07T23:14:22.863Z,3.41
2023-01-07T23:16:52.476Z,3.42
2023-01-07T23:19:21.845Z,3.40
2023-01-07T23:21:53.648Z,3.38
2023-01-07T23:24:23.611Z,3.37
2023-01-07T23:26:54.402Z,3.37
2023-01-07T23:29:23.300Z,3.36
2023-01-07T23:31:51.739Z,3.35
2023-01-07T23:34:20.310Z,3.35
2023-01-07T23:36:48.785Z,3.34
2023-01-07T23:39:17.321Z,3.32
2023-01-07T23:41:46.043Z,3.31
2023-01-07T23:44:14.585Z,3.29
2023-01-07T23:46:43.084Z,3.28
2023-01-07T23:49:11.488Z,3.26
2023-01-07T23:51:41.431Z,3.24
2023-01-07T23:54:10.290Z,3.22
2023-01-07T23:56:38.762Z,3.21
2023-01-07T23:59:07.381Z,3.19
